Time;durP1;ratioP1;P1;durP2;ratioP2;P2;SDS_P1;SDS_P2;PMS_P1;PMS_P2;Temp;Humidity;BMP_temperature;BMP_pressure;BME280_temperature;BME280_humidity;BME280_pressure;Samples;Min_cycle;Max_cycle;Signal;HPM_P1;HPM_P2
2021/06/25 00:04:58;;;;;;;;;43.25;37.50;;;;;;;;8905031;40;11073;-60
2021/06/25 00:11:00;;;;;;;;;42.00;39.00;;;;;;;;8888848;40;10761;-61
2021/06/25 00:17:02;;;;;;;;;34.75;31.50;;;;;;;;8876652;40;10577;-60
2021/06/25 00:23:04;;;;;;;;;39.50;32.75;;;;;;;;8877629;40;10601;-61
2021/06/25 00:29:06;;;;;;;;;33.75;30.00;;;;;;;;8877050;40;10821;-61
2021/06/25 00:35:09;;;;;;;;;36.00;32.25;;;;;;;;8885690;40;10523;-61
2021/06/25 00:41:11;;;;;;;;;33.50;30.50;;;;;;;;8902777;40;10652;-61
2021/06/25 00:47:13;;;;;;;;;31.75;31.75;;;;;;;;8889032;40;10674;-60
2021/06/25 00:53:15;;;;;;;;;30.75;29.00;;;;;;;;8888438;40;10469;-61
2021/06/25 00:59:17;;;;;;;;;36.75;31.75;;;;;;;;8877054;40;10741;-60
2021/06/25 01:05:18;;;;;;;;;34.50;29.00;;;;;;;;8876382;40;10465;-61
2021/06/25 01:11:21;;;;;;;;;29.50;27.75;;;;;;;;8876707;40;10518;-60
2021/06/25 01:17:35;;;;;;;;;34.75;30.75;;;;;;;;8875755;40;10423;-61
2021/06/25 01:23:39;;;;;;;;;31.75;28.50;;;;;;;;8881572;40;10486;-60
2021/06/25 01:29:41;;;;;;;;;31.00;27.75;;;;;;;;8900654;40;10715;-60
2021/06/25 01:35:43;;;;;;;;;32.50;27.75;;;;;;;;8899826;40;10711;-61
2021/06/25 01:41:45;;;;;;;;;30.75;29.75;;;;;;;;8901278;40;10452;-61
2021/06/25 01:47:49;;;;;;;;;28.25;27.25;;;;;;;;8900751;40;10582;-60
2021/06/25 01:53:52;;;;;;;;;26.00;23.50;;;;;;;;8900059;40;10842;-61
2021/06/25 01:59:54;;;;;;;;;41.25;39.00;;;;;;;;8899011;40;10607;-61
2021/06/25 02:05:57;;;;;;;;;30.75;30.75;;;;;;;;8900456;40;10436;-59
2021/06/25 02:11:59;;;;;;;;;29.75;27.75;;;;;;;;8910588;40;10878;-61
2021/06/25 02:18:01;;;;;;;;;30.75;26.50;;;;;;;;8899443;40;10557;-61
2021/06/25 02:24:03;;;;;;;;;35.00;28.75;;;;;;;;8898791;40;10552;-60
2021/06/25 02:30:08;;;;;;;;;33.75;29.75;;;;;;;;8874747;40;10587;-61
2021/06/25 02:36:10;;;;;;;;;30.75;28.50;;;;;;;;8901569;40;10658;-61
2021/06/25 02:42:11;;;;;;;;;28.75;27.25;;;;;;;;8900778;40;10425;-59
2021/06/25 02:48:13;;;;;;;;;38.75;34.00;;;;;;;;8898902;40;10707;-61
2021/06/25 02:54:16;;;;;;;;;31.25;28.50;;;;;;;;8900127;40;11105;-61
2021/06/25 03:00:18;;;;;;;;;34.75;31.75;;;;;;;;8897836;40;10756;-60
2021/06/25 03:06:20;;;;;;;;;34.00;28.25;;;;;;;;8892361;40;10541;-59
2021/06/25 03:12:22;;;;;;;;;36.25;28.00;;;;;;;;8875718;40;10685;-60
2021/06/25 03:18:25;;;;;;;;;36.00;30.00;;;;;;;;8873764;40;10625;-60
2021/06/25 03:24:27;;;;;;;;;30.50;29.25;;;;;;;;8888707;40;10407;-61
2021/06/25 03:30:30;;;;;;;;;34.50;32.00;;;;;;;;8873241;40;10522;-61
2021/06/25 03:36:33;;;;;;;;;37.50;34.00;;;;;;;;8873463;40;10492;-61
2021/06/25 03:42:35;;;;;;;;;34.00;32.75;;;;;;;;8885362;40;10530;-60
2021/06/25 03:48:37;;;;;;;;;30.75;29.75;;;;;;;;8897633;40;10555;-61
2021/06/25 03:54:39;;;;;;;;;38.75;33.75;;;;;;;;8873982;40;10536;-60
2021/06/25 04:07:19;;;;;;;;;34.50;30.00;;;;;;;;8692707;24;10914;-60
2021/06/25 04:13:21;;;;;;;;;35.25;32.25;;;;;;;;8558407;41;10893;-60
2021/06/25 04:19:23;;;;;;;;;31.50;30.25;;;;;;;;8547882;41;10675;-59
2021/06/25 04:25:25;;;;;;;;;32.50;32.50;;;;;;;;8561394;41;10834;-60
2021/06/25 04:31:27;;;;;;;;;35.00;28.50;;;;;;;;8561937;41;10773;-61
2021/06/25 04:37:29;;;;;;;;;36.75;36.00;;;;;;;;8564873;41;10800;-60
2021/06/25 04:43:31;;;;;;;;;29.00;26.00;;;;;;;;8565267;41;10817;-60
2021/06/25 04:49:43;;;;;;;;;33.75;28.00;;;;;;;;8566233;41;11242;-60
2021/06/25 04:55:45;;;;;;;;;34.00;32.00;;;;;;;;8543788;41;10823;-59
2021/06/25 05:01:47;;;;;;;;;31.00;27.50;;;;;;;;8543376;41;10728;-60
2021/06/25 05:07:49;;;;;;;;;36.25;32.25;;;;;;;;8552467;41;10831;-59
2021/06/25 05:13:53;;;;;;;;;34.25;29.50;;;;;;;;8565827;41;10777;-59
2021/06/25 05:19:55;;;;;;;;;32.25;30.50;;;;;;;;8556949;41;10735;-60
2021/06/25 05:25:58;;;;;;;;;29.75;27.75;;;;;;;;8542184;41;11228;-60
2021/06/25 05:32:00;;;;;;;;;23.75;23.25;;;;;;;;8548766;41;10825;-61
2021/06/25 05:38:05;;;;;;;;;32.25;28.50;;;;;;;;8565066;41;10818;-60
2021/06/25 05:44:07;;;;;;;;;30.00;26.50;;;;;;;;8562384;41;10778;-60
2021/06/25 05:50:09;;;;;;;;;28.75;24.25;;;;;;;;8561073;41;10746;-61
2021/06/25 05:56:11;;;;;;;;;34.25;32.25;;;;;;;;8558965;41;11881;-62
2021/06/25 06:02:13;;;;;;;;;35.50;32.25;;;;;;;;8550104;41;10791;-61
2021/06/25 06:08:15;;;;;;;;;38.25;36.00;;;;;;;;8554473;41;10803;-61
2021/06/25 06:14:17;;;;;;;;;40.50;36.00;;;;;;;;8567796;41;10788;-61
2021/06/25 06:20:24;;;;;;;;;35.00;31.00;;;;;;;;8557081;41;10828;-60
2021/06/25 06:33:02;;;;;;;;;50.50;41.25;;;;;;;;8553903;41;10865;-61
2021/06/25 06:39:05;;;;;;;;;31.00;29.50;;;;;;;;8547970;41;10784;-63
2021/06/25 06:45:08;;;;;;;;;41.50;37.25;;;;;;;;8548516;41;10816;-64
2021/06/25 06:51:14;;;;;;;;;48.00;41.50;;;;;;;;8547962;41;11375;-64
2021/06/25 06:57:36;;;;;;;;;35.50;34.75;;;;;;;;8554107;41;10768;-65
2021/06/25 07:03:38;;;;;;;;;35.00;32.25;;;;;;;;8550222;41;10731;-63
2021/06/25 07:09:40;;;;;;;;;36.00;34.25;;;;;;;;8549055;41;10721;-64
2021/06/25 07:15:43;;;;;;;;;30.25;29.75;;;;;;;;8555158;41;10851;-66
2021/06/25 07:21:45;;;;;;;;;34.00;33.50;;;;;;;;8554568;41;10753;-64
2021/06/25 07:27:47;;;;;;;;;33.75;32.75;;;;;;;;8555043;41;10680;-65
2021/06/25 07:33:50;;;;;;;;;36.75;32.50;;;;;;;;8552777;41;10854;-62
2021/06/25 07:39:52;;;;;;;;;44.00;37.00;;;;;;;;8555423;41;10835;-65
2021/06/25 07:45:54;;;;;;;;;30.00;30.00;;;;;;;;8550595;41;10845;-65
2021/06/25 07:51:56;;;;;;;;;42.75;35.25;;;;;;;;8554486;41;10833;-65
2021/06/25 07:57:58;;;;;;;;;36.75;35.50;;;;;;;;8546078;41;10804;-63
2021/06/25 08:04:00;;;;;;;;;42.75;37.50;;;;;;;;8557753;41;10898;-63
2021/06/25 08:10:11;;;;;;;;;36.25;35.00;;;;;;;;8547362;41;10896;-63
2021/06/25 08:16:13;;;;;;;;;36.75;35.00;;;;;;;;8557608;41;11347;-66
2021/06/25 08:22:15;;;;;;;;;36.75;35.25;;;;;;;;8556223;41;10796;-65
2021/06/25 08:28:18;;;;;;;;;31.75;31.75;;;;;;;;8554443;41;10777;-64
2021/06/25 08:34:20;;;;;;;;;40.00;36.50;;;;;;;;8558870;41;11043;-64
2021/06/25 08:40:23;;;;;;;;;36.00;35.00;;;;;;;;8559567;41;10761;-62
2021/06/25 08:46:30;;;;;;;;;40.25;36.25;;;;;;;;8560042;41;10902;-64
2021/06/25 08:52:32;;;;;;;;;38.75;36.25;;;;;;;;8559259;41;10840;-64
2021/06/25 08:58:34;;;;;;;;;37.25;35.50;;;;;;;;8555996;41;11565;-67
2021/06/25 09:04:41;;;;;;;;;37.00;33.75;;;;;;;;8548689;41;10785;-63
2021/06/25 09:10:43;;;;;;;;;35.00;34.50;;;;;;;;8557715;41;10761;-64
2021/06/25 09:16:45;;;;;;;;;38.50;37.00;;;;;;;;8554731;41;10863;-63
2021/06/25 09:22:49;;;;;;;;;40.75;36.25;;;;;;;;8555549;41;10809;-67
2021/06/25 09:28:52;;;;;;;;;49.00;40.25;;;;;;;;8555815;41;11022;-65
2021/06/25 09:34:56;;;;;;;;;37.00;34.75;;;;;;;;8556120;41;10783;-64
2021/06/25 09:40:58;;;;;;;;;42.25;37.75;;;;;;;;8561235;41;10856;-64
2021/06/25 09:47:00;;;;;;;;;41.00;36.00;;;;;;;;8555703;41;10832;-62
2021/06/25 09:53:05;;;;;;;;;42.00;38.25;;;;;;;;8559399;41;10958;-63
2021/06/25 10:06:07;;;;;;;;;36.75;35.75;;;;;;;;8546970;41;10866;-63
2021/06/25 10:12:14;;;;;;;;;38.50;37.00;;;;;;;;8554693;41;10829;-64
2021/06/25 10:18:17;;;;;;;;;35.75;33.00;;;;;;;;8554817;41;10820;-64
2021/06/25 10:24:21;;;;;;;;;35.75;31.75;;;;;;;;8557832;41;11388;-64
2021/06/25 10:30:23;;;;;;;;;40.25;36.25;;;;;;;;8558546;41;10972;-61
2021/06/25 10:36:30;;;;;;;;;38.00;35.25;;;;;;;;8557653;41;10772;-63
2021/06/25 10:42:41;;;;;;;;;33.50;31.50;;;;;;;;8556042;41;10821;-63
2021/06/25 10:48:43;;;;;;;;;35.25;32.00;;;;;;;;8574718;41;10697;-62
2021/06/25 10:55:02;;;;;;;;;34.50;30.75;;;;;;;;8558381;41;10782;-64
2021/06/25 11:01:05;;;;;;;;;32.50;31.75;;;;;;;;8555973;41;10839;-63
2021/06/25 11:07:13;;;;;;;;;36.00;31.25;;;;;;;;8562213;41;11511;-64
2021/06/25 11:13:16;;;;;;;;;34.50;30.50;;;;;;;;8555901;41;10939;-65
2021/06/25 11:19:40;;;;;;;;;30.25;28.75;;;;;;;;8548152;41;10743;-64
2021/06/25 11:25:52;;;;;;;;;22.75;22.50;;;;;;;;8554340;41;10804;-63
2021/06/25 11:32:09;;;;;;;;;26.00;22.50;;;;;;;;8554612;41;10773;-63
2021/06/25 11:38:11;;;;;;;;;29.50;23.75;;;;;;;;8561872;41;10770;-63
2021/06/25 11:44:24;;;;;;;;;21.50;20.00;;;;;;;;8561323;41;10748;-63
2021/06/25 11:50:26;;;;;;;;;25.25;23.50;;;;;;;;8565435;41;11330;-63
2021/06/25 11:56:29;;;;;;;;;27.75;26.00;;;;;;;;8560243;41;10731;-62
2021/06/25 12:02:53;;;;;;;;;46.75;39.75;;;;;;;;8558179;41;10779;-64
2021/06/25 12:09:00;;;;;;;;;27.00;25.75;;;;;;;;8557631;41;10823;-63
2021/06/25 12:15:09;;;;;;;;;31.50;28.75;;;;;;;;8558642;41;10792;-63
2021/06/25 12:21:15;;;;;;;;;22.00;19.75;;;;;;;;8561511;41;10752;-64
2021/06/25 12:27:18;;;;;;;;;22.00;21.25;;;;;;;;8564480;41;10772;-63
2021/06/25 12:33:23;;;;;;;;;20.25;19.00;;;;;;;;8563736;41;10862;-64
2021/06/25 12:39:28;;;;;;;;;21.75;20.75;;;;;;;;8542709;41;10766;-64
2021/06/25 12:45:41;;;;;;;;;30.75;26.50;;;;;;;;8560358;41;11040;-63
2021/06/25 12:51:43;;;;;;;;;21.50;21.25;;;;;;;;8542057;41;10892;-63
2021/06/25 12:57:46;;;;;;;;;19.00;19.00;;;;;;;;8556610;41;10787;-64
2021/06/25 13:03:48;;;;;;;;;23.75;21.00;;;;;;;;8548370;41;10922;-63
2021/06/25 13:09:52;;;;;;;;;23.00;22.25;;;;;;;;8564678;41;10953;-63
2021/06/25 13:15:59;;;;;;;;;20.00;19.50;;;;;;;;8560982;41;10683;-64
2021/06/25 13:22:14;;;;;;;;;58.75;46.25;;;;;;;;8562750;41;10889;-63
2021/06/25 13:28:16;;;;;;;;;21.50;18.00;;;;;;;;8560215;41;10802;-64
2021/06/25 13:34:19;;;;;;;;;25.00;24.00;;;;;;;;8559120;41;10756;-66
2021/06/25 13:40:26;;;;;;;;;23.50;23.50;;;;;;;;8552486;41;10846;-66
2021/06/25 13:46:31;;;;;;;;;20.25;20.25;;;;;;;;8565361;41;10893;-65
2021/06/25 13:52:36;;;;;;;;;22.75;19.75;;;;;;;;8541469;41;10840;-66
2021/06/25 13:59:02;;;;;;;;;22.00;20.50;;;;;;;;8540765;41;10687;-63
2021/06/25 14:05:10;;;;;;;;;22.50;22.50;;;;;;;;8543287;41;10903;-64
2021/06/25 14:11:18;;;;;;;;;28.25;26.00;;;;;;;;8544794;41;10896;-63
2021/06/25 14:17:31;;;;;;;;;28.75;26.00;;;;;;;;8549676;41;10730;-64
2021/06/25 14:23:33;;;;;;;;;24.25;24.25;;;;;;;;8552111;41;10764;-63
2021/06/25 14:29:35;;;;;;;;;27.50;25.00;;;;;;;;8565313;41;10645;-64
2021/06/25 14:35:37;;;;;;;;;25.00;24.50;;;;;;;;8563962;41;10744;-64
2021/06/25 14:41:39;;;;;;;;;28.25;26.00;;;;;;;;8556651;41;10763;-64
2021/06/25 14:47:41;;;;;;;;;30.75;28.25;;;;;;;;8579578;41;10722;-64
2021/06/25 14:53:45;;;;;;;;;22.50;21.00;;;;;;;;8587213;41;10775;-63
2021/06/25 14:59:48;;;;;;;;;25.50;24.25;;;;;;;;8565937;41;10756;-63
2021/06/25 15:05:50;;;;;;;;;30.50;23.25;;;;;;;;8559237;41;11385;-62
2021/06/25 15:11:52;;;;;;;;;24.00;22.25;;;;;;;;8563938;41;10763;-65
2021/06/25 15:17:54;;;;;;;;;25.25;23.50;;;;;;;;8564358;41;11537;-63
2021/06/25 15:23:56;;;;;;;;;27.50;26.75;;;;;;;;8542843;41;10732;-64
2021/06/25 15:29:58;;;;;;;;;22.25;20.50;;;;;;;;8564423;41;10773;-62
2021/06/25 15:36:00;;;;;;;;;26.25;24.50;;;;;;;;8563799;41;11302;-63
2021/06/25 15:42:02;;;;;;;;;31.50;26.75;;;;;;;;8565628;41;11198;-63
2021/06/25 15:48:06;;;;;;;;;23.00;22.75;;;;;;;;8564254;41;10691;-64
2021/06/25 15:54:08;;;;;;;;;22.75;22.50;;;;;;;;8563613;41;10700;-63
2021/06/25 16:00:10;;;;;;;;;22.00;22.00;;;;;;;;8562247;41;10695;-63
2021/06/25 16:06:12;;;;;;;;;24.75;23.75;;;;;;;;8562749;41;10895;-63
2021/06/25 16:12:15;;;;;;;;;25.50;23.75;;;;;;;;8563957;41;10931;-63
2021/06/25 16:18:17;;;;;;;;;24.00;22.75;;;;;;;;8562811;41;10654;-64
2021/06/25 16:24:19;;;;;;;;;26.25;23.25;;;;;;;;8563794;41;10784;-65
2021/06/25 16:30:25;;;;;;;;;33.75;31.25;;;;;;;;8563891;41;10729;-64
2021/06/25 16:36:28;;;;;;;;;24.00;21.75;;;;;;;;8565686;41;10877;-64
2021/06/25 16:42:30;;;;;;;;;32.00;31.00;;;;;;;;8566716;41;10755;-63
2021/06/25 16:48:34;;;;;;;;;28.25;24.25;;;;;;;;8565973;41;10637;-62
2021/06/25 16:54:37;;;;;;;;;31.75;25.50;;;;;;;;8544422;41;10795;-62
2021/06/25 17:00:39;;;;;;;;;22.75;22.75;;;;;;;;8543857;41;10753;-63
2021/06/25 17:06:41;;;;;;;;;25.75;24.75;;;;;;;;8543467;41;10813;-63
2021/06/25 17:12:43;;;;;;;;;25.25;22.25;;;;;;;;8555010;41;10724;-63
2021/06/25 17:18:45;;;;;;;;;28.25;27.50;;;;;;;;8565167;41;10682;-63
2021/06/25 17:24:47;;;;;;;;;32.00;30.75;;;;;;;;8565549;41;10742;-64
2021/06/25 17:30:50;;;;;;;;;29.00;27.75;;;;;;;;8551677;41;10857;-65
2021/06/25 17:36:52;;;;;;;;;30.00;28.75;;;;;;;;8543115;41;10840;-62
2021/06/25 17:42:55;;;;;;;;;37.50;33.50;;;;;;;;8549783;41;10892;-62
2021/06/25 17:48:56;;;;;;;;;39.50;34.75;;;;;;;;8565853;41;10726;-64
2021/06/25 17:54:58;;;;;;;;;31.75;29.75;;;;;;;;8564848;41;10826;-63
2021/06/25 18:01:00;;;;;;;;;34.00;31.25;;;;;;;;8564820;41;10886;-63
2021/06/25 18:07:03;;;;;;;;;42.25;38.00;;;;;;;;8564138;41;10746;-63
2021/06/25 18:13:05;;;;;;;;;40.50;36.50;;;;;;;;8564523;41;10763;-63
2021/06/25 18:19:08;;;;;;;;;41.75;39.25;;;;;;;;8566079;41;10687;-62
2021/06/25 18:25:11;;;;;;;;;39.75;36.00;;;;;;;;8565068;41;10826;-64
2021/06/25 18:31:13;;;;;;;;;43.75;38.50;;;;;;;;8564903;41;10801;-63
2021/06/25 18:37:15;;;;;;;;;43.00;37.00;;;;;;;;8565116;41;10929;-64
2021/06/25 18:43:17;;;;;;;;;41.50;36.75;;;;;;;;8563373;41;10821;-64
2021/06/25 18:49:19;;;;;;;;;40.50;37.00;;;;;;;;8564559;41;10735;-62
2021/06/25 18:55:22;;;;;;;;;38.00;36.00;;;;;;;;8543491;41;10797;-62
2021/06/25 19:01:24;;;;;;;;;36.00;33.50;;;;;;;;8542344;41;11326;-63
2021/06/25 19:07:26;;;;;;;;;35.75;32.75;;;;;;;;8543094;41;10762;-62
2021/06/25 19:13:28;;;;;;;;;34.25;33.75;;;;;;;;8540200;41;10828;-64
2021/06/25 19:19:30;;;;;;;;;35.00;30.25;;;;;;;;8542990;41;11296;-64
2021/06/25 19:25:32;;;;;;;;;47.75;39.25;;;;;;;;8547836;41;10809;-63
2021/06/25 19:31:36;;;;;;;;;39.00;36.00;;;;;;;;8564722;41;10746;-62
2021/06/25 19:37:39;;;;;;;;;37.00;35.00;;;;;;;;8564021;41;11374;-62
2021/06/25 19:43:41;;;;;;;;;41.50;37.50;;;;;;;;8562455;41;10759;-63
2021/06/25 19:49:43;;;;;;;;;36.75;35.25;;;;;;;;8561581;41;11526;-62
2021/06/25 19:55:51;;;;;;;;;33.25;32.00;;;;;;;;8561937;41;10939;-62
2021/06/25 20:01:54;;;;;;;;;38.00;36.50;;;;;;;;8561281;41;10796;-63
2021/06/25 20:07:56;;;;;;;;;36.00;34.00;;;;;;;;8564388;41;10687;-63
2021/06/25 20:13:58;;;;;;;;;42.00;37.75;;;;;;;;8564909;41;10835;-63
2021/06/25 20:20:01;;;;;;;;;38.25;35.25;;;;;;;;8564293;41;10936;-63
2021/06/25 20:26:02;;;;;;;;;36.50;36.25;;;;;;;;8542765;41;10812;-62
2021/06/25 20:32:05;;;;;;;;;44.25;38.75;;;;;;;;8541629;41;10786;-63
2021/06/25 20:38:07;;;;;;;;;39.80;35.80;;;;;;;;7478894;41;10001702;-62
2021/06/25 20:44:08;;;;;;;;;39.25;36.25;;;;;;;;8587634;41;10660;-62
2021/06/25 20:50:11;;;;;;;;;40.75;36.50;;;;;;;;8587904;41;10763;-63
2021/06/25 20:56:15;;;;;;;;;44.00;39.00;;;;;;;;8587704;41;11217;-63
2021/06/25 21:02:18;;;;;;;;;40.75;38.25;;;;;;;;8587171;41;10780;-63
2021/06/25 21:08:20;;;;;;;;;41.00;36.75;;;;;;;;8593981;41;10838;-63
2021/06/25 21:14:22;;;;;;;;;41.75;37.00;;;;;;;;8606473;41;10966;-62
2021/06/25 21:20:24;;;;;;;;;41.50;38.00;;;;;;;;8606447;41;10689;-62
2021/06/25 21:26:26;;;;;;;;;41.25;36.00;;;;;;;;8610196;41;10805;-63
2021/06/25 21:32:28;;;;;;;;;38.00;37.25;;;;;;;;8610569;41;10753;-63
2021/06/25 21:38:30;;;;;;;;;37.00;33.75;;;;;;;;8610509;41;10838;-62
2021/06/25 21:44:32;;;;;;;;;41.00;36.00;;;;;;;;8609567;41;10649;-65
2021/06/25 21:50:34;;;;;;;;;39.25;37.50;;;;;;;;8609712;41;10755;-62
2021/06/25 21:56:37;;;;;;;;;38.50;36.75;;;;;;;;8588958;41;10808;-62
2021/06/25 22:02:40;;;;;;;;;38.25;33.75;;;;;;;;8586300;41;10681;-63
2021/06/25 22:08:42;;;;;;;;;37.00;34.75;;;;;;;;8601125;41;11472;-62
2021/06/25 22:14:44;;;;;;;;;46.00;41.75;;;;;;;;8609272;41;10825;-62
2021/06/25 22:20:46;;;;;;;;;43.00;37.75;;;;;;;;8609410;41;10655;-62
2021/06/25 22:26:48;;;;;;;;;41.00;37.50;;;;;;;;8603511;41;10703;-62
2021/06/25 22:32:50;;;;;;;;;41.00;37.50;;;;;;;;8608390;41;10744;-62
2021/06/25 22:38:52;;;;;;;;;38.25;36.00;;;;;;;;8610248;41;11331;-63
2021/06/25 22:44:54;;;;;;;;;41.00;35.75;;;;;;;;8610332;41;10774;-61
2021/06/25 22:50:57;;;;;;;;;38.75;36.75;;;;;;;;8608300;41;10771;-62
2021/06/25 22:56:59;;;;;;;;;47.00;39.50;;;;;;;;8591519;41;11226;-62
2021/06/25 23:03:01;;;;;;;;;39.25;36.50;;;;;;;;8594968;41;10771;-63
2021/06/25 23:09:04;;;;;;;;;31.25;30.75;;;;;;;;8585973;41;10795;-61
2021/06/25 23:15:08;;;;;;;;;25.50;22.50;;;;;;;;8585617;41;10801;-61
2021/06/25 23:21:10;;;;;;;;;20.75;16.50;;;;;;;;8585709;41;10692;-61
2021/06/25 23:27:12;;;;;;;;;13.50;11.75;;;;;;;;8585503;41;10640;-61
2021/06/25 23:33:14;;;;;;;;;16.75;15.75;;;;;;;;8585116;41;10687;-62
2021/06/25 23:39:16;;;;;;;;;21.75;16.50;;;;;;;;8586385;41;11538;-61
2021/06/25 23:45:18;;;;;;;;;17.00;13.75;;;;;;;;8584932;41;10719;-61
2021/06/25 23:51:20;;;;;;;;;15.75;10.75;;;;;;;;8585428;41;10999;-62
2021/06/25 23:57:22;;;;;;;;;15.50;13.25;;;;;;;;8584957;41;11387;-61
